Time;durP1;ratioP1;P1;durP2;ratioP2;P2;SDS_P1;SDS_P2;PMS_P1;PMS_P2;Temp;Humidity;BMP_temperature;BMP_pressure;BME280_temperature;BME280_humidity;BME280_pressure;Samples;Min_cycle;Max_cycle;Signal;HPM_P1;HPM_P2
2022/03/08 00:02:01;;;;;;;;;;;;;;;2.37;88.14;99624.28;5071368;28;19965;-38
2022/03/08 00:04:27;;;;;;;;;;;;;;;2.29;88.35;99614.53;5071328;28;20069;-38
2022/03/08 00:06:53;;;;;;;;;;;;;;;2.19;88.99;99616.44;5071194;28;19908;-38
2022/03/08 00:09:18;;;;;;;;;;;;;;;2.25;88.95;99620.28;5053470;28;19912;-38
2022/03/08 00:11:43;;;;;;;;;;;;;;;2.21;88.69;99611.03;5071378;28;20340;-38
2022/03/08 00:14:09;;;;;;;;;;;;;;;2.18;88.00;99614.78;5057317;28;19916;-38
2022/03/08 00:16:34;;;;;;;;;;;;;;;2.30;89.20;99613.59;5051546;28;19915;-38
2022/03/08 00:18:59;;;;;;;;;;;;;;;2.22;88.68;99610.88;5051341;28;20381;-39
2022/03/08 00:21:24;;;;;;;;;;;;;;;2.24;87.73;99614.16;5051083;28;19921;-39
2022/03/08 00:23:50;;;;;;;;;;;;;;;2.25;88.64;99615.84;5053040;28;19962;-39
2022/03/08 00:26:15;;;;;;;;;;;;;;;2.28;87.96;99612.88;5051336;28;19912;-39
2022/03/08 00:28:44;;;;;;;;;;;;;;;2.10;88.95;99606.84;5051108;28;20361;-38
2022/03/08 00:31:10;;;;;;;;;;;;;;;2.18;88.36;99611.34;5052906;28;20340;-39
2022/03/08 00:33:35;;;;;;;;;;;;;;;2.27;88.70;99605.19;5055268;28;19959;-38
2022/03/08 00:36:00;;;;;;;;;;;;;;;2.17;88.46;99607.91;5055097;28;20014;-38
2022/03/08 00:38:26;;;;;;;;;;;;;;;2.13;88.63;99602.13;5036944;28;20350;-38
2022/03/08 00:40:51;;;;;;;;;;;;;;;2.19;89.05;99605.09;5054956;28;19940;-38
2022/03/08 00:43:16;;;;;;;;;;;;;;;2.22;88.64;99605.63;5054811;28;19991;-38
2022/03/08 00:45:41;;;;;;;;;;;;;;;2.18;88.39;99609.53;5054943;28;19908;-37
2022/03/08 00:48:07;;;;;;;;;;;;;;;2.03;89.05;99604.00;5054952;28;19913;-38
2022/03/08 00:50:32;;;;;;;;;;;;;;;2.12;88.60;99607.53;5054693;28;19956;-39
2022/03/08 00:52:57;;;;;;;;;;;;;;;2.01;88.23;99603.31;5054805;28;20354;-38
2022/03/08 00:55:23;;;;;;;;;;;;;;;2.05;87.25;99594.16;5054577;28;19916;-53
2022/03/08 00:57:48;;;;;;;;;;;;;;;2.06;88.17;99584.50;5054603;28;19909;-53
2022/03/08 01:00:14;;;;;;;;;;;;;;;2.11;86.90;99569.97;5055027;28;20349;-52
2022/03/08 01:02:40;;;;;;;;;;;;;;;1.80;87.56;99560.84;5037203;28;19909;-53
2022/03/08 01:05:05;;;;;;;;;;;;;;;1.55;89.18;99569.31;5054947;28;19908;-51
2022/03/08 01:07:30;;;;;;;;;;;;;;;1.76;90.76;99562.94;5055008;28;20288;-51
2022/03/08 01:09:56;;;;;;;;;;;;;;;1.86;89.91;99573.34;5054773;28;19912;-53
2022/03/08 01:12:22;;;;;;;;;;;;;;;2.04;89.03;99582.03;5054381;28;20015;-51
2022/03/08 01:14:47;;;;;;;;;;;;;;;1.93;89.19;99577.84;5053863;28;20340;-49
2022/03/08 01:17:12;;;;;;;;;;;;;;;1.91;88.36;99576.34;5054243;28;19916;-52
2022/03/08 01:19:38;;;;;;;;;;;;;;;2.14;88.99;99580.13;5054728;28;19917;-52
2022/03/08 01:22:03;;;;;;;;;;;;;;;1.90;89.82;99586.00;5036759;28;20325;-51
2022/03/08 01:24:30;;;;;;;;;;;;;;;1.96;89.11;99579.31;5043119;28;19921;-49
2022/03/08 01:26:55;;;;;;;;;;;;;;;1.82;89.97;99585.94;5054485;28;19908;-49
2022/03/08 01:29:20;;;;;;;;;;;;;;;1.82;89.97;99591.19;5054642;28;19948;-50
2022/03/08 01:31:45;;;;;;;;;;;;;;;2.26;89.29;99593.00;5054794;28;19916;-52
2022/03/08 01:34:11;;;;;;;;;;;;;;;2.13;88.88;99593.41;5054541;28;19974;-53
2022/03/08 01:36:36;;;;;;;;;;;;;;;2.12;88.45;99597.03;5054224;28;19908;-52
2022/03/08 01:39:02;;;;;;;;;;;;;;;2.32;88.40;99590.63;5052849;28;19948;-50
2022/03/08 01:41:27;;;;;;;;;;;;;;;2.00;88.69;99590.34;5053973;28;19909;-50
2022/03/08 01:43:52;;;;;;;;;;;;;;;2.41;87.27;99598.53;5053979;28;19915;-52
2022/03/08 01:46:18;;;;;;;;;;;;;;;2.20;87.09;99593.63;5054446;28;20399;-51
2022/03/08 01:48:43;;;;;;;;;;;;;;;2.12;87.75;99594.41;5054007;28;19920;-51
2022/03/08 01:51:08;;;;;;;;;;;;;;;2.24;87.19;99593.16;5062972;28;19960;-50
2022/03/08 01:53:34;;;;;;;;;;;;;;;2.29;86.34;99595.34;5073925;28;20288;-51
2022/03/08 01:55:59;;;;;;;;;;;;;;;2.10;87.62;99598.97;5074095;28;19908;-52
2022/03/08 01:58:24;;;;;;;;;;;;;;;2.19;87.09;99590.19;5074147;28;20065;-53
2022/03/08 02:00:49;;;;;;;;;;;;;;;2.22;87.33;99591.69;5073686;28;20299;-50
2022/03/08 02:03:15;;;;;;;;;;;;;;;2.58;85.55;99594.22;5073796;28;19909;-51
2022/03/08 02:05:40;;;;;;;;;;;;;;;2.43;85.27;99599.22;5073702;28;20364;-53
2022/03/08 02:08:05;;;;;;;;;;;;;;;2.92;83.06;99596.84;5073699;28;19908;-50
2022/03/08 02:10:30;;;;;;;;;;;;;;;2.67;84.82;99601.16;5073602;28;19919;-51
2022/03/08 02:12:56;;;;;;;;;;;;;;;2.96;82.92;99608.69;5069188;28;20300;-50
2022/03/08 02:15:22;;;;;;;;;;;;;;;3.28;80.90;99612.44;5052679;28;19915;-50
2022/03/08 02:17:47;;;;;;;;;;;;;;;3.13;82.09;99614.84;5052503;28;19909;-50
2022/03/08 02:20:13;;;;;;;;;;;;;;;2.88;83.53;99614.75;5053266;28;19916;-49
2022/03/08 02:22:39;;;;;;;;;;;;;;;3.09;82.23;99613.53;5053392;28;19970;-50
2022/03/08 02:25:04;;;;;;;;;;;;;;;3.30;80.28;99619.19;5053209;28;19923;-49
2022/03/08 02:27:30;;;;;;;;;;;;;;;3.57;79.62;99603.31;5053371;28;19942;-50
2022/03/08 02:29:55;;;;;;;;;;;;;;;3.02;80.95;99607.25;5053433;28;19912;-49
2022/03/08 02:32:21;;;;;;;;;;;;;;;2.97;82.17;99612.97;5035709;28;19908;-49
2022/03/08 02:34:46;;;;;;;;;;;;;;;3.12;81.83;99607.94;5053189;28;19909;-50
2022/03/08 02:37:12;;;;;;;;;;;;;;;3.25;80.65;99612.75;5053168;28;19913;-49
2022/03/08 02:39:38;;;;;;;;;;;;;;;3.67;77.58;99604.78;5053062;28;20288;-49
2022/03/08 02:42:03;;;;;;;;;;;;;;;3.78;77.20;99600.22;5053327;28;19909;-50
2022/03/08 02:44:29;;;;;;;;;;;;;;;4.03;76.24;99601.03;5053088;28;19913;-49
2022/03/08 02:46:55;;;;;;;;;;;;;;;3.08;79.85;99601.34;5053303;28;19916;-49
2022/03/08 02:49:20;;;;;;;;;;;;;;;2.90;79.95;99602.25;5053005;28;19912;-49
2022/03/08 02:51:46;;;;;;;;;;;;;;;2.76;81.84;99597.59;5066881;28;19918;-49
2022/03/08 02:54:11;;;;;;;;;;;;;;;2.69;83.74;99597.41;5072156;28;19908;-50
2022/03/08 02:56:36;;;;;;;;;;;;;;;2.76;81.42;99594.13;5072949;28;19924;-49
2022/03/08 02:59:02;;;;;;;;;;;;;;;2.98;80.36;99590.16;5072313;28;19915;-49
2022/03/08 03:01:27;;;;;;;;;;;;;;;2.68;82.41;99597.53;5072711;28;19908;-49
2022/03/08 03:03:52;;;;;;;;;;;;;;;2.97;81.99;99597.22;5072699;28;19923;-49
2022/03/08 03:06:17;;;;;;;;;;;;;;;2.90;79.99;99596.19;5072522;28;20340;-50
2022/03/08 03:08:43;;;;;;;;;;;;;;;2.83;82.11;99597.78;5072535;28;19908;-49
2022/03/08 03:11:08;;;;;;;;;;;;;;;3.05;78.97;99594.59;5072633;28;19999;-50
2022/03/08 03:13:34;;;;;;;;;;;;;;;3.05;83.26;99602.50;5063486;28;19909;-50
2022/03/08 03:15:59;;;;;;;;;;;;;;;3.36;82.80;99609.00;5052627;28;19987;-52
2022/03/08 03:18:24;;;;;;;;;;;;;;;3.79;80.84;99604.47;5052203;28;20268;-51
2022/03/08 03:20:49;;;;;;;;;;;;;;;4.40;79.25;99602.34;5052585;28;19913;-50
2022/03/08 03:23:15;;;;;;;;;;;;;;;4.17;81.31;99604.81;5052596;28;20459;-49
2022/03/08 03:25:40;;;;;;;;;;;;;;;3.30;81.23;99605.22;5052111;28;19917;-50
2022/03/08 03:28:05;;;;;;;;;;;;;;;2.80;84.02;99611.22;5052208;28;19935;-50
2022/03/08 03:30:30;;;;;;;;;;;;;;;2.56;85.53;99618.00;5052326;28;19917;-49
2022/03/08 03:32:56;;;;;;;;;;;;;;;2.44;87.07;99614.00;5052234;28;19916;-49
2022/03/08 03:35:21;;;;;;;;;;;;;;;2.84;86.81;99609.97;5051714;28;20365;-49
2022/03/08 03:37:46;;;;;;;;;;;;;;;3.00;85.01;99612.66;5052230;28;19912;-49
2022/03/08 03:40:12;;;;;;;;;;;;;;;2.74;86.33;99624.03;5051617;28;19936;-51
2022/03/08 03:42:37;;;;;;;;;;;;;;;2.40;87.96;99613.47;5052004;28;19915;-49
2022/03/08 03:45:03;;;;;;;;;;;;;;;2.65;87.99;99613.63;5052006;28;19908;-50
2022/03/08 03:47:28;;;;;;;;;;;;;;;2.47;87.78;99617.13;5052432;28;19912;-50
2022/03/08 03:49:53;;;;;;;;;;;;;;;2.64;87.63;99617.22;5051745;28;20007;-52
2022/03/08 03:52:18;;;;;;;;;;;;;;;2.59;87.59;99615.09;5052057;28;19930;-50
2022/03/08 03:54:44;;;;;;;;;;;;;;;2.52;87.77;99619.31;5051499;28;19916;-50
2022/03/08 03:57:11;;;;;;;;;;;;;;;2.51;87.35;99623.75;5051436;28;19948;-51
2022/03/08 03:59:37;;;;;;;;;;;;;;;2.61;87.36;99620.16;5051697;28;19909;-51
2022/03/08 04:02:02;;;;;;;;;;;;;;;2.60;86.57;99624.59;5051760;28;19915;-51
2022/03/08 04:04:27;;;;;;;;;;;;;;;2.70;86.89;99621.84;5052099;28;19995;-50
2022/03/08 04:06:53;;;;;;;;;;;;;;;2.63;86.43;99618.22;5051958;28;19909;-51
2022/03/08 04:09:19;;;;;;;;;;;;;;;2.57;86.83;99617.03;5051615;28;19963;-52
2022/03/08 04:11:44;;;;;;;;;;;;;;;2.41;87.76;99620.38;5051951;28;20346;-51
2022/03/08 04:14:09;;;;;;;;;;;;;;;2.43;86.89;99614.97;5051616;28;20352;-51
2022/03/08 04:16:35;;;;;;;;;;;;;;;2.21;88.13;99619.75;5051866;28;19966;-50
2022/03/08 04:19:00;;;;;;;;;;;;;;;2.24;88.71;99621.22;5051494;28;19909;-50
2022/03/08 04:21:25;;;;;;;;;;;;;;;2.07;89.22;99618.47;5051528;28;19916;-50
2022/03/08 04:23:51;;;;;;;;;;;;;;;2.15;89.78;99617.72;5051688;28;19921;-51
2022/03/08 04:26:16;;;;;;;;;;;;;;;2.18;87.98;99617.41;5051289;28;19912;-50
2022/03/08 04:28:41;;;;;;;;;;;;;;;2.09;89.38;99623.56;5050627;28;19936;-52
2022/03/08 04:31:06;;;;;;;;;;;;;;;2.12;89.10;99608.34;5050747;28;20013;-50
2022/03/08 04:33:32;;;;;;;;;;;;;;;2.17;88.07;99618.41;5050947;28;19996;-53
2022/03/08 04:35:57;;;;;;;;;;;;;;;2.20;87.25;99625.97;5050621;28;20343;-49
2022/03/08 04:38:22;;;;;;;;;;;;;;;2.11;88.73;99630.34;5050823;28;19936;-50
2022/03/08 04:40:47;;;;;;;;;;;;;;;1.97;88.43;99633.47;5050828;28;19912;-51
2022/03/08 04:43:13;;;;;;;;;;;;;;;2.27;88.44;99634.06;5051209;28;19915;-38
2022/03/08 04:45:38;;;;;;;;;;;;;;;2.40;87.07;99645.00;5051330;28;19959;-38
2022/03/08 04:48:03;;;;;;;;;;;;;;;2.49;86.91;99643.25;5050877;28;19916;-38
2022/03/08 04:50:29;;;;;;;;;;;;;;;2.40;85.57;99646.78;5054667;28;19948;-38
2022/03/08 04:52:54;;;;;;;;;;;;;;;2.32;87.00;99642.28;5070508;28;19980;-38
2022/03/08 04:55:19;;;;;;;;;;;;;;;2.20;86.78;99640.91;5060624;28;20440;-38
2022/03/08 04:57:45;;;;;;;;;;;;;;;2.05;88.22;99630.09;5050656;28;19915;-38
2022/03/08 05:00:13;;;;;;;;;;;;;;;2.08;88.45;99635.88;5050639;28;19996;-39
2022/03/08 05:02:39;;;;;;;;;;;;;;;2.42;88.20;99642.19;5050496;28;19947;-38
2022/03/08 05:05:06;;;;;;;;;;;;;;;2.31;86.64;99641.47;5050703;28;20367;-39
2022/03/08 05:07:31;;;;;;;;;;;;;;;2.20;87.53;99643.53;5050477;28;19912;-39
2022/03/08 05:09:56;;;;;;;;;;;;;;;2.04;87.83;99644.22;5050280;28;20281;-38
2022/03/08 05:12:21;;;;;;;;;;;;;;;2.07;86.11;99647.34;5050444;28;19913;-38
2022/03/08 05:14:47;;;;;;;;;;;;;;;2.14;87.42;99644.94;5050384;28;20003;-37
2022/03/08 05:17:12;;;;;;;;;;;;;;;2.40;85.78;99654.66;5051876;28;20310;-38
2022/03/08 05:19:37;;;;;;;;;;;;;;;2.61;83.64;99649.91;5053769;28;19916;-38
2022/03/08 05:22:03;;;;;;;;;;;;;;;2.68;84.62;99658.78;5054138;28;20405;-39
2022/03/08 05:24:28;;;;;;;;;;;;;;;2.82;82.07;99654.78;5042194;28;19944;-39
2022/03/08 05:26:54;;;;;;;;;;;;;;;3.43;79.75;99654.75;5053023;28;19931;-38
2022/03/08 05:29:19;;;;;;;;;;;;;;;3.65;78.57;99655.94;5053036;28;19913;-38
2022/03/08 05:31:44;;;;;;;;;;;;;;;2.87;81.88;99659.56;5053086;28;19947;-38
2022/03/08 05:34:09;;;;;;;;;;;;;;;2.59;83.74;99656.28;5051857;28;19915;-38
2022/03/08 05:36:35;;;;;;;;;;;;;;;2.55;84.16;99658.38;5045700;28;19966;-51
2022/03/08 05:39:00;;;;;;;;;;;;;;;2.53;83.94;99657.72;5033600;28;19959;-51
2022/03/08 05:41:25;;;;;;;;;;;;;;;2.71;84.84;99662.94;5033037;28;20372;-53
2022/03/08 05:43:51;;;;;;;;;;;;;;;2.67;84.01;99656.34;5032612;28;20409;-51
2022/03/08 05:46:16;;;;;;;;;;;;;;;2.59;85.39;99662.38;5033118;28;19987;-51
2022/03/08 05:48:41;;;;;;;;;;;;;;;2.51;83.62;99659.66;5032694;28;20373;-54
2022/03/08 05:51:07;;;;;;;;;;;;;;;2.73;83.22;99668.88;5050717;28;19985;-51
2022/03/08 05:53:32;;;;;;;;;;;;;;;2.51;84.97;99664.94;5072401;28;20303;-54
2022/03/08 05:55:57;;;;;;;;;;;;;;;2.47;84.81;99664.41;5058267;28;19984;-38
2022/03/08 05:58:22;;;;;;;;;;;;;;;2.83;83.12;99672.19;5053152;28;19912;-38
2022/03/08 06:00:48;;;;;;;;;;;;;;;2.77;82.81;99678.09;5053288;28;19974;-38
2022/03/08 06:03:13;;;;;;;;;;;;;;;2.51;83.62;99667.56;5053232;28;20337;-38
2022/03/08 06:05:38;;;;;;;;;;;;;;;2.59;86.20;99677.28;5052657;28;19912;-38
2022/03/08 06:08:04;;;;;;;;;;;;;;;2.57;84.29;99680.09;5051406;28;19959;-38
2022/03/08 06:10:30;;;;;;;;;;;;;;;2.72;82.87;99682.97;5042156;28;20007;-38
2022/03/08 06:12:55;;;;;;;;;;;;;;;2.14;84.47;99679.09;5049240;28;20019;-39
2022/03/08 06:15:20;;;;;;;;;;;;;;;2.49;84.62;99685.28;5033607;28;19974;-38
2022/03/08 06:17:46;;;;;;;;;;;;;;;2.49;83.05;99680.03;5035590;28;20003;-38
2022/03/08 06:20:11;;;;;;;;;;;;;;;2.43;83.88;99685.88;5032616;28;20381;-39
2022/03/08 06:22:36;;;;;;;;;;;;;;;2.59;83.85;99685.19;5032796;28;19917;-38
2022/03/08 06:25:02;;;;;;;;;;;;;;;2.70;82.95;99688.41;5032189;28;20342;-38
2022/03/08 06:27:27;;;;;;;;;;;;;;;2.80;80.50;99690.09;5013936;28;19951;-38
2022/03/08 06:29:52;;;;;;;;;;;;;;;2.66;83.90;99692.28;5031590;28;19913;-39
2022/03/08 06:32:19;;;;;;;;;;;;;;;2.71;82.25;99692.66;5032233;28;19934;-39
2022/03/08 06:34:44;;;;;;;;;;;;;;;2.79;82.68;99689.25;5031204;28;19909;-39
2022/03/08 06:37:09;;;;;;;;;;;;;;;2.77;82.46;99690.41;5032151;28;19995;-38
2022/03/08 06:39:35;;;;;;;;;;;;;;;2.82;81.54;99693.38;5030466;28;19919;-38
2022/03/08 06:42:00;;;;;;;;;;;;;;;3.12;81.49;99700.81;5030450;28;19913;-38
2022/03/08 06:44:25;;;;;;;;;;;;;;;3.10;80.58;99701.94;5030675;28;19909;-38
2022/03/08 06:46:50;;;;;;;;;;;;;;;3.29;80.88;99706.13;5030675;28;19944;-39
2022/03/08 06:49:16;;;;;;;;;;;;;;;3.71;80.24;99713.22;5030597;28;19909;-38
2022/03/08 06:51:41;;;;;;;;;;;;;;;3.80;79.43;99683.28;5057969;28;19909;-38
2022/03/08 06:54:06;;;;;;;;;;;;;;;3.92;79.04;99708.34;5070968;28;20086;-39
2022/03/08 06:56:33;;;;;;;;;;;;;;;4.22;77.46;99708.72;5071557;28;19957;-40
2022/03/08 06:58:59;;;;;;;;;;;;;;;3.58;79.39;99707.56;5072104;28;19912;-40
2022/03/08 07:01:24;;;;;;;;;;;;;;;2.99;82.61;99710.94;5071758;28;20343;-39
2022/03/08 07:03:49;;;;;;;;;;;;;;;2.86;83.04;99708.69;5071881;28;20406;-38
2022/03/08 07:06:14;;;;;;;;;;;;;;;3.11;82.37;99706.22;5070931;28;20098;-38
2022/03/08 07:08:40;;;;;;;;;;;;;;;3.01;81.24;99711.59;5071510;28;19945;-38
2022/03/08 07:11:05;;;;;;;;;;;;;;;2.82;81.15;99711.78;5071579;28;19931;-39
2022/03/08 07:13:31;;;;;;;;;;;;;;;2.78;84.40;99708.66;5072175;28;19908;-39
2022/03/08 07:15:57;;;;;;;;;;;;;;;2.82;83.31;99710.00;5053577;28;19909;-39
2022/03/08 07:18:23;;;;;;;;;;;;;;;2.80;84.04;99716.38;5071544;28;19908;-40
2022/03/08 07:20:49;;;;;;;;;;;;;;;2.47;86.17;99713.50;5071739;28;19912;-39
2022/03/08 07:23:14;;;;;;;;;;;;;;;2.65;84.86;99713.50;5071516;28;20403;-38
2022/03/08 07:25:40;;;;;;;;;;;;;;;2.61;84.40;99720.00;5071214;28;19916;-39
2022/03/08 07:28:05;;;;;;;;;;;;;;;2.27;84.98;99708.41;5071494;28;19908;-40
2022/03/08 07:30:31;;;;;;;;;;;;;;;2.25;86.33;99705.13;5071164;28;19920;-39
2022/03/08 07:32:56;;;;;;;;;;;;;;;2.27;86.49;99707.59;5071252;28;19974;-40
2022/03/08 07:35:21;;;;;;;;;;;;;;;2.21;85.47;99703.78;5071208;28;20377;-39
2022/03/08 07:37:47;;;;;;;;;;;;;;;2.17;87.15;99710.31;5071293;28;19927;-40
2022/03/08 07:40:12;;;;;;;;;;;;;;;2.08;86.89;99703.31;5070881;28;20030;-39
2022/03/08 07:42:37;;;;;;;;;;;;;;;1.93;86.96;99697.75;5068077;28;19991;-38
2022/03/08 07:45:03;;;;;;;;;;;;;;;1.99;87.36;99707.66;5051176;28;19999;-39
2022/03/08 07:47:29;;;;;;;;;;;;;;;1.94;88.33;99713.34;5050818;28;20018;-39
2022/03/08 07:49:54;;;;;;;;;;;;;;;1.95;87.56;99719.44;5050985;28;20416;-39
2022/03/08 07:52:19;;;;;;;;;;;;;;;1.86;87.57;99710.63;5070225;28;19931;-38
2022/03/08 07:54:45;;;;;;;;;;;;;;;1.91;86.91;99711.03;5070655;28;19909;-39
2022/03/08 07:57:10;;;;;;;;;;;;;;;1.96;88.24;99697.44;5070125;28;19916;-38
2022/03/08 07:59:35;;;;;;;;;;;;;;;2.01;87.57;99704.88;5070717;28;19938;-39
2022/03/08 08:02:00;;;;;;;;;;;;;;;2.08;87.17;99696.25;5070770;28;20360;-38
2022/03/08 08:04:26;;;;;;;;;;;;;;;1.91;88.45;99697.91;5070855;28;19939;-39
2022/03/08 08:06:51;;;;;;;;;;;;;;;1.97;88.44;99693.03;5071131;28;20401;-38
2022/03/08 08:09:16;;;;;;;;;;;;;;;2.14;86.68;99692.22;5071136;28;20387;-38
2022/03/08 08:11:42;;;;;;;;;;;;;;;2.26;85.90;99690.19;5070665;28;19908;-37
2022/03/08 08:14:07;;;;;;;;;;;;;;;2.25;87.38;99699.03;5070897;28;19912;-38
2022/03/08 08:16:32;;;;;;;;;;;;;;;2.12;87.50;99699.41;5070749;28;19908;-39
2022/03/08 08:18:58;;;;;;;;;;;;;;;2.41;85.76;99690.47;5070808;28;20460;-39
2022/03/08 08:21:23;;;;;;;;;;;;;;;2.03;87.38;99689.81;5071050;28;19985;-39
2022/03/08 08:23:49;;;;;;;;;;;;;;;1.98;87.78;99685.03;5070281;28;19932;-39
2022/03/08 08:26:14;;;;;;;;;;;;;;;2.19;88.22;99689.97;5070415;28;20288;-38
2022/03/08 08:28:40;;;;;;;;;;;;;;;2.42;85.82;99677.19;5070459;28;19908;-38
2022/03/08 08:31:06;;;;;;;;;;;;;;;2.25;85.58;99683.28;5070422;28;19920;-39
2022/03/08 08:33:31;;;;;;;;;;;;;;;2.41;86.47;99682.59;5070316;28;19908;-38
2022/03/08 08:35:56;;;;;;;;;;;;;;;2.49;85.52;99678.22;5056113;28;19916;-38
2022/03/08 08:38:22;;;;;;;;;;;;;;;2.62;85.71;99677.81;5050692;28;19909;-38
2022/03/08 08:40:47;;;;;;;;;;;;;;;2.42;86.63;99682.44;5050212;28;20364;-38
2022/03/08 08:43:12;;;;;;;;;;;;;;;2.78;84.51;99682.38;5050533;28;19916;-39
2022/03/08 08:45:37;;;;;;;;;;;;;;;2.90;84.22;99683.75;5050454;28;19915;-38
2022/03/08 08:48:06;;;;;;;;;;;;;;;2.67;84.46;99688.69;5049868;28;19916;-39
2022/03/08 08:50:31;;;;;;;;;;;;;;;2.92;83.83;99687.03;5054386;28;19919;-39
2022/03/08 08:52:57;;;;;;;;;;;;;;;3.25;83.76;99691.66;5073556;28;19908;-39
2022/03/08 08:55:22;;;;;;;;;;;;;;;3.19;83.84;99687.03;5074324;28;19916;-39
2022/03/08 08:57:48;;;;;;;;;;;;;;;2.96;84.85;99687.56;5074170;28;20360;-39
2022/03/08 09:00:13;;;;;;;;;;;;;;;3.70;82.29;99693.16;5073898;28;19944;-38
2022/03/08 09:02:42;;;;;;;;;;;;;;;3.16;82.67;99692.59;5074183;28;20346;-39
2022/03/08 09:05:07;;;;;;;;;;;;;;;2.97;82.52;99683.13;5074462;28;19966;-38
2022/03/08 09:07:33;;;;;;;;;;;;;;;3.04;82.83;99686.78;5074129;28;20358;-38
2022/03/08 09:09:58;;;;;;;;;;;;;;;3.31;82.26;99685.75;5073902;28;20361;-38
2022/03/08 09:12:23;;;;;;;;;;;;;;;3.33;81.02;99687.28;5074114;28;19930;-37
2022/03/08 09:14:48;;;;;;;;;;;;;;;3.39;81.30;99677.06;5073985;28;19912;-38
2022/03/08 09:17:14;;;;;;;;;;;;;;;3.17;82.55;99678.47;5073951;28;19966;-39
2022/03/08 09:19:39;;;;;;;;;;;;;;;2.96;82.14;99684.13;5073734;28;19935;-39
2022/03/08 09:22:04;;;;;;;;;;;;;;;3.89;78.55;99689.41;5074169;28;19958;-37
2022/03/08 09:24:31;;;;;;;;;;;;;;;3.89;78.45;99690.22;5073409;28;19940;-38
2022/03/08 09:26:56;;;;;;;;;;;;;;;3.77;79.74;99688.91;5073429;28;20393;-38
2022/03/08 09:29:22;;;;;;;;;;;;;;;3.65;80.66;99688.34;5073452;28;19908;-39
2022/03/08 09:31:52;;;;;;;;;;;;;;;3.60;79.98;99684.56;5073564;28;19920;-39
2022/03/08 09:34:17;;;;;;;;;;;;;;;3.78;79.60;99690.53;5073625;28;19915;-39
2022/03/08 09:36:42;;;;;;;;;;;;;;;3.77;79.45;99695.94;5073168;28;19957;-38
2022/03/08 09:39:08;;;;;;;;;;;;;;;3.78;78.85;99694.97;5073149;28;20362;-37
2022/03/08 09:41:33;;;;;;;;;;;;;;;3.65;79.32;99698.88;5073599;28;19908;-38
2022/03/08 09:43:59;;;;;;;;;;;;;;;3.58;79.68;99691.78;5073580;28;19908;-38
2022/03/08 09:46:24;;;;;;;;;;;;;;;3.73;78.40;99698.06;5031741;28;19932;-38
2022/03/08 09:48:49;;;;;;;;;;;;;;;3.90;76.91;99691.91;5033493;28;19913;-38
2022/03/08 09:51:15;;;;;;;;;;;;;;;4.13;76.06;99687.78;5053990;28;20230;-38
2022/03/08 09:53:40;;;;;;;;;;;;;;;4.06;76.34;99692.91;5073045;28;20303;-38
2022/03/08 09:56:05;;;;;;;;;;;;;;;3.87;77.72;99696.66;5072991;28;19927;-38
2022/03/08 09:58:31;;;;;;;;;;;;;;;3.69;77.48;99702.88;5073012;28;19955;-38
2022/03/08 10:00:59;;;;;;;;;;;;;;;3.63;77.99;99702.66;5072966;28;19987;-37
2022/03/08 10:03:32;;;;;;;;;;;;;;;3.79;79.12;99701.88;5072547;28;20500;-38
2022/03/08 10:05:58;;;;;;;;;;;;;;;3.73;77.41;99703.34;5072893;28;20291;-38
2022/03/08 10:08:24;;;;;;;;;;;;;;;3.69;78.01;99699.38;5073010;28;20390;-38
2022/03/08 10:10:50;;;;;;;;;;;;;;;3.35;77.89;99702.91;5054963;28;19966;-38
2022/03/08 10:13:15;;;;;;;;;;;;;;;3.43;76.64;99702.94;5072681;28;20383;-38
2022/03/08 10:15:41;;;;;;;;;;;;;;;3.36;78.02;99707.16;5072313;28;19908;-38
2022/03/08 10:18:06;;;;;;;;;;;;;;;3.17;78.75;99704.78;5072442;28;20008;-37
2022/03/08 10:20:32;;;;;;;;;;;;;;;3.67;76.73;99704.00;5072443;28;20315;-38
2022/03/08 10:22:57;;;;;;;;;;;;;;;3.37;77.14;99707.97;5072233;28;19913;-38
2022/03/08 10:25:24;;;;;;;;;;;;;;;3.22;78.34;99707.75;5068342;28;19942;-38
2022/03/08 10:27:50;;;;;;;;;;;;;;;3.06;78.87;99711.94;5072245;28;19916;-37
2022/03/08 10:30:15;;;;;;;;;;;;;;;3.33;78.11;99707.47;5071999;28;19936;-38
2022/03/08 10:32:40;;;;;;;;;;;;;;;3.46;77.87;99714.94;5072088;28;19908;-39
2022/03/08 10:35:06;;;;;;;;;;;;;;;3.51;76.67;99713.47;5072421;28;20359;-37
2022/03/08 10:37:35;;;;;;;;;;;;;;;3.44;78.46;99707.19;5070551;28;20295;-38
2022/03/08 10:40:01;;;;;;;;;;;;;;;3.64;77.29;99712.22;5072135;28;20041;-38
2022/03/08 10:42:27;;;;;;;;;;;;;;;3.65;76.86;99709.41;5071769;28;19916;-39
2022/03/08 10:44:59;;;;;;;;;;;;;;;4.00;76.46;99711.97;5071631;28;19908;-38
2022/03/08 10:47:25;;;;;;;;;;;;;;;4.10;75.91;99710.03;5059603;28;19996;-38
2022/03/08 10:49:57;;;;;;;;;;;;;;;4.24;74.54;99711.19;5049916;28;20011;-38
2022/03/08 10:52:29;;;;;;;;;;;;;;;3.94;75.68;99713.47;5071150;28;19952;-38
2022/03/08 10:54:54;;;;;;;;;;;;;;;4.20;76.02;99708.06;5071578;28;20022;-38
2022/03/08 10:57:19;;;;;;;;;;;;;;;4.42;74.73;99716.31;5071438;28;20065;-38
2022/03/08 10:59:54;;;;;;;;;;;;;;;4.46;74.45;99707.91;5071427;28;19974;-39
2022/03/08 11:02:20;;;;;;;;;;;;;;;4.67;74.61;99712.69;5071480;28;19919;-39
2022/03/08 11:04:45;;;;;;;;;;;;;;;4.66;74.41;99713.69;5069044;28;19904;-37
2022/03/08 11:07:11;;;;;;;;;;;;;;;5.02;73.55;99713.28;5051806;28;20281;-38
2022/03/08 11:09:37;;;;;;;;;;;;;;;5.78;72.48;99707.59;5051643;28;19920;-37
2022/03/08 11:12:02;;;;;;;;;;;;;;;6.09;68.24;99714.69;5050554;28;19996;-38
2022/03/08 11:14:27;;;;;;;;;;;;;;;6.06;66.62;99715.88;5050844;28;20369;-38
2022/03/08 11:16:53;;;;;;;;;;;;;;;5.86;68.87;99708.38;5049776;28;19909;-38
2022/03/08 11:19:18;;;;;;;;;;;;;;;5.71;70.88;99709.25;5051098;28;19917;-38
2022/03/08 11:21:44;;;;;;;;;;;;;;;5.11;71.47;99700.09;5050334;28;19935;-38
2022/03/08 11:24:09;;;;;;;;;;;;;;;5.00;69.97;99704.72;5049460;28;19932;-38
2022/03/08 11:26:34;;;;;;;;;;;;;;;4.79;72.94;99692.06;5051662;28;19916;-38
2022/03/08 11:29:00;;;;;;;;;;;;;;;4.68;73.73;99684.50;5051292;28;20399;-38
2022/03/08 11:31:27;;;;;;;;;;;;;;;4.60;74.43;99687.97;5051264;28;19919;-38
2022/03/08 11:34:04;;;;;;;;;;;;;;;4.79;73.92;99683.34;5050116;28;20297;-37
2022/03/08 11:36:33;;;;;;;;;;;;;;;4.67;75.55;99682.88;5051166;28;19912;-39
2022/03/08 11:39:14;;;;;;;;;;;;;;;4.86;76.31;99679.06;5049735;28;19978;-38
2022/03/08 11:41:39;;;;;;;;;;;;;;;5.02;72.47;99681.63;5051070;28;19909;-38
2022/03/08 11:44:05;;;;;;;;;;;;;;;5.10;70.66;99678.16;5050842;28;19931;-38
2022/03/08 11:46:30;;;;;;;;;;;;;;;5.00;69.43;99680.16;5051032;28;19909;-39
2022/03/08 11:48:59;;;;;;;;;;;;;;;4.89;71.30;99671.63;5050943;28;19979;-38
2022/03/08 11:51:25;;;;;;;;;;;;;;;4.87;72.11;99672.78;5060975;28;19912;-38
2022/03/08 11:54:05;;;;;;;;;;;;;;;4.74;74.49;99662.78;5071158;28;20299;-37
2022/03/08 11:56:46;;;;;;;;;;;;;;;4.52;75.62;99669.53;5070737;28;19908;-37
2022/03/08 11:59:12;;;;;;;;;;;;;;;4.60;74.04;99663.44;5071293;28;19909;-37
2022/03/08 12:01:38;;;;;;;;;;;;;;;4.98;72.50;99664.50;5071000;28;19908;-38
2022/03/08 12:04:09;;;;;;;;;;;;;;;5.12;71.76;99670.88;5071198;28;19915;-37
2022/03/08 12:06:35;;;;;;;;;;;;;;;5.33;68.86;99662.44;5054367;28;19991;-37
2022/03/08 12:09:07;;;;;;;;;;;;;;;4.98;71.48;99668.97;5051061;28;19909;-38
2022/03/08 12:11:34;;;;;;;;;;;;;;;4.98;71.35;99668.97;5051394;28;19912;-38
2022/03/08 12:14:03;;;;;;;;;;;;;;;5.44;68.20;99669.94;5051111;28;19909;-38
2022/03/08 12:16:28;;;;;;;;;;;;;;;5.41;69.27;99662.38;5050763;28;19909;-38
2022/03/08 12:18:55;;;;;;;;;;;;;;;5.82;65.24;99661.34;5050894;28;19924;-37
2022/03/08 12:21:23;;;;;;;;;;;;;;;5.90;67.35;99660.47;5050857;28;19917;-38
2022/03/08 12:24:09;;;;;;;;;;;;;;;6.13;65.67;99666.63;5050829;28;19983;-37
2022/03/08 12:26:40;;;;;;;;;;;;;;;5.56;67.63;99662.47;5036124;28;19928;-37
2022/03/08 12:29:06;;;;;;;;;;;;;;;5.69;66.05;99664.53;5054831;28;19913;-38
2022/03/08 12:31:31;;;;;;;;;;;;;;;5.96;65.29;99658.00;5054465;28;20027;-37
2022/03/08 12:34:05;;;;;;;;;;;;;;;6.15;64.88;99647.94;5054185;28;20426;-38
2022/03/08 12:36:31;;;;;;;;;;;;;;;6.65;61.69;99641.22;5054534;28;20325;-37
2022/03/08 12:38:56;;;;;;;;;;;;;;;6.55;63.12;99643.31;5020467;28;19997;-39
2022/03/08 12:41:25;;;;;;;;;;;;;;;6.48;62.14;99648.50;5054528;28;19915;-38
2022/03/08 12:43:59;;;;;;;;;;;;;;;6.46;63.05;99640.75;5054738;28;20202;-38
2022/03/08 12:46:25;;;;;;;;;;;;;;;6.32;64.62;99646.81;5054585;28;19951;-38
2022/03/08 12:48:54;;;;;;;;;;;;;;;6.55;62.95;99645.94;5054400;28;20356;-37
2022/03/08 12:51:22;;;;;;;;;;;;;;;6.34;63.77;99642.19;5065138;28;20409;-37